Port Heiden, AK

4:32 AM AKDT on June 26, 2017 (GMT -0800)
Port Heiden

Weather History for PAPH - December, 2013

Change the Weather History Date:

Saturday, December 21, 2013

  Actual Average Record
Temperature  
Mean Temperature 33 °F -  
Max Temperature 42 °F 27 °F 46 °F (2004)
Min Temperature 24 °F 17 °F -9 °F (2012)
Degree Days  
Heating Degree Days 32    
Moisture  
Dew Point 28 °F    
Average Humidity 75    
Maximum Humidity 81    
Minimum Humidity 56    
Precipitation  
Precipitation 0.01 in - - ()
Sea Level Pressure  
Sea Level Pressure 29.57 in    
Wind  
Wind Speed 11 mph (SW)    
Max Wind Speed 25 mph    
Max Gust Speed 30 mph    
Visibility 8 miles    
Events      
Averages and records for this station are not official NWS values.
T = Trace of Precipitation, MM = Missing Value Source: NWS Daily Summary

Daily Weather History Graph

Daily Weather History Graph

Search for Another Location

Airport or City:

Trip Planner

Search our weather history database for the weather conditions in past years. The results will help you decide how hot, cold, wet, or windy it might be!

Date:

Astronomy

Dec. 21, 2013 Rise Set
Actual Time 10:11 AM AKST 4:54 PM AKST
Civil Twilight 9:21 AM AKST 5:44 PM AKST
Nautical Twilight 8:30 AM AKST 6:34 PM AKST
Astronomical Twilight 7:43 AM AKST 7:21 PM AKST
Moon 10:13 PM AKST (12/21) 11:55 AM AKST (12/21)
Length of Visible Light 8h 22m
Length of Day
6h 43m
Waning Gibbous, 83% of the Moon is Illuminated
Dec 21
Waning Gibbous
Dec 25
Last Quarter
Jan 1
New
Jan 7
First Quarter
Jan 15
Full

Hourly Weather History & Observations

Time (AKST) Temp. Windchill Dew Point Humidity Pressure Visibility Wind Dir Wind Speed Gust Speed Precip Events Conditions
12:16 AM 41.0 °F 34.7 °F 32.0 °F 70% 29.46 in 10.0 mi SSE 10.4 mph - N/A   Scattered Clouds
12:36 AM 41.0 °F 35.2 °F 32.0 °F 70% 29.46 in 10.0 mi SSE 9.2 mph - N/A   Mostly Cloudy
12:56 AM 41.0 °F 34.3 °F 32.0 °F 70% 29.46 in 10.0 mi SSE 11.5 mph - N/A   Overcast
1:16 AM 42.8 °F 36.6 °F 32.0 °F 66% 29.46 in 10.0 mi SSE 11.5 mph - N/A   Overcast
1:36 AM 42.8 °F 37.0 °F 33.8 °F 70% 29.47 in 10.0 mi SSE 10.4 mph - N/A   Overcast
1:56 AM 42.8 °F 37.0 °F 33.8 °F 70% 29.47 in 10.0 mi SSE 10.4 mph - N/A   Overcast
2:16 AM 41.0 °F 35.2 °F 33.8 °F 76% 29.46 in 10.0 mi SSE 9.2 mph - N/A   Overcast
2:36 AM 41.0 °F 36.4 °F 33.8 °F 76% 29.47 in 10.0 mi SSE 6.9 mph - N/A   Overcast
2:56 AM 41.0 °F 38.0 °F 33.8 °F 76% 29.46 in 10.0 mi SE 4.6 mph - N/A   Overcast
3:16 AM 39.2 °F 34.2 °F 33.8 °F 81% 29.45 in 10.0 mi ESE 6.9 mph - N/A   Overcast
3:36 AM 39.2 °F 33.6 °F 33.8 °F 81% 29.45 in 10.0 mi ESE 8.1 mph - N/A   Overcast
3:56 AM 39.2 °F 34.2 °F 33.8 °F 81% 29.45 in 10.0 mi ESE 6.9 mph - N/A   Mostly Cloudy
4:16 AM 39.2 °F 35.9 °F 32.0 °F 75% 29.45 in 10.0 mi SSE 4.6 mph - N/A   Mostly Cloudy
4:36 AM 39.2 °F 34.2 °F 33.8 °F 81% 29.45 in 10.0 mi SSE 6.9 mph - N/A   Mostly Cloudy
4:56 AM 39.2 °F 34.2 °F 33.8 °F 81% 29.45 in 10.0 mi SSE 6.9 mph - N/A   Overcast
5:16 AM 39.2 °F 35.0 °F 33.8 °F 81% 29.44 in 10.0 mi SSE 5.8 mph - N/A   Overcast
5:36 AM 39.2 °F 35.0 °F 33.8 °F 81% 29.44 in 10.0 mi SSE 5.8 mph - N/A   Overcast
5:56 AM 39.2 °F 33.0 °F 33.8 °F 81% 29.44 in 10.0 mi South 9.2 mph - N/A   Overcast
6:16 AM 41.0 °F 33.9 °F 33.8 °F 76% 29.44 in 10.0 mi SSE 12.7 mph - N/A   Mostly Cloudy
6:36 AM 41.0 °F 34.3 °F 33.8 °F 76% 29.45 in 10.0 mi South 11.5 mph - N/A   Overcast
6:56 AM 41.0 °F 35.2 °F 33.8 °F 76% 29.45 in 10.0 mi South 9.2 mph - N/A   Overcast
7:16 AM 41.0 °F 35.2 °F 33.8 °F 76% 29.45 in 10.0 mi South 9.2 mph - N/A   Overcast
7:36 AM 41.0 °F 35.2 °F 33.8 °F 76% 29.45 in 10.0 mi South 9.2 mph - N/A   Overcast
7:56 AM 41.0 °F 35.2 °F 33.8 °F 76% 29.46 in 10.0 mi South 9.2 mph - N/A   Overcast
8:16 AM 41.0 °F 35.8 °F 33.8 °F 76% 29.47 in 10.0 mi South 8.1 mph - N/A   Overcast
8:36 AM 39.2 °F 33.0 °F 33.8 °F 81% 29.47 in 10.0 mi South 9.2 mph - N/A   Overcast
8:56 AM 39.2 °F 35.0 °F 33.8 °F 81% 29.47 in 10.0 mi South 5.8 mph - N/A   Overcast
9:16 AM 39.2 °F 35.0 °F 33.8 °F 81% 29.47 in 10.0 mi SSE 5.8 mph - N/A   Overcast
9:36 AM 39.2 °F 35.9 °F 33.8 °F 81% 29.47 in 10.0 mi South 4.6 mph - N/A   Overcast
9:56 AM 39.2 °F 35.9 °F 33.8 °F 81% 29.48 in 10.0 mi South 4.6 mph - N/A   Overcast
10:16 AM 39.2 °F 33.6 °F 33.8 °F 81% 29.48 in 10.0 mi South 8.1 mph - N/A   Overcast
10:36 AM 39.2 °F 35.0 °F 33.8 °F 81% 29.49 in 10.0 mi SSW 5.8 mph - N/A   Overcast
10:56 AM 37.4 °F 30.3 °F 32.0 °F 81% 29.50 in 0.5 mi WSW 10.4 mph - N/A   Overcast
11:16 AM 37.4 °F 29.3 °F 32.0 °F 81% 29.51 in 1.0 mi WSW 12.7 mph - N/A   Overcast
11:36 AM 37.4 °F 29.3 °F 30.2 °F 75% 29.51 in 1.0 mi WSW 12.7 mph - N/A   Overcast
11:56 AM 35.6 °F 28.0 °F 30.2 °F 81% 29.52 in 1.5 mi SW 10.4 mph - N/A   Overcast
12:16 PM 35.6 °F 28.0 °F 30.2 °F 81% 29.52 in 0.8 mi SW 10.4 mph - N/A   Overcast
12:36 PM 35.6 °F 28.0 °F 30.2 °F 81% 29.52 in 1.0 mi SSW 10.4 mph - N/A   Overcast
12:56 PM 35.6 °F 27.5 °F 30.2 °F 81% 29.52 in 1.8 mi SSW 11.5 mph - N/A   Overcast
1:16 PM 35.6 °F 29.9 °F 30.2 °F 81% 29.53 in 8.0 mi South 6.9 mph - N/A   Overcast
1:36 PM 35.6 °F 29.2 °F 30.2 °F 81% 29.54 in 10.0 mi SSW 8.1 mph - N/A   Overcast
1:56 PM 35.6 °F 24.5 °F 30.2 °F 81% 29.55 in 1.2 mi NW 20.7 mph 26.5 mph N/A   Overcast
2:16 PM 33.8 °F 23.5 °F 28.4 °F 81% 29.57 in 2.5 mi WNW 16.1 mph 23.0 mph N/A   Overcast
2:36 PM 32.0 °F 20.5 °F 26.6 °F 80% 29.58 in 2.0 mi WNW 18.4 mph 24.2 mph N/A   Overcast
2:56 PM 32.0 °F 21.2 °F 26.6 °F 80% 29.60 in 3.0 mi West 16.1 mph - N/A   Overcast
3:16 PM 32.0 °F 20.8 °F 24.8 °F 75% 29.61 in 5.0 mi West 17.3 mph - N/A   Overcast
3:36 PM 32.0 °F 20.8 °F 24.8 °F 75% 29.62 in 4.0 mi West 17.3 mph - N/A   Overcast
3:56 PM 30.2 °F 18.9 °F 24.8 °F 80% 29.63 in 8.0 mi West 16.1 mph 21.9 mph N/A   Overcast
4:16 PM 30.2 °F 19.3 °F 23.0 °F 75% 29.63 in 8.0 mi WNW 15.0 mph 20.7 mph N/A   Overcast
4:36 PM 30.2 °F 19.3 °F 21.2 °F 69% 29.64 in 7.0 mi West 15.0 mph - N/A   Overcast
4:56 PM 30.2 °F 18.9 °F 23.0 °F 75% 29.65 in 4.0 mi WNW 16.1 mph 20.7 mph N/A   Overcast
5:16 PM 30.2 °F 20.2 °F 23.0 °F 75% 29.66 in 5.0 mi WNW 12.7 mph 20.7 mph N/A   Overcast
5:36 PM 30.2 °F 18.1 °F 21.2 °F 69% 29.67 in 3.0 mi WNW 18.4 mph - N/A   Overcast
5:56 PM 28.4 °F 16.6 °F 21.2 °F 74% 29.67 in 6.0 mi WNW 16.1 mph 21.9 mph N/A   Overcast
6:16 PM 28.4 °F 17.5 °F 21.2 °F 74% 29.68 in 7.0 mi WNW 13.8 mph - N/A   Overcast
6:36 PM 28.4 °F 15.8 °F 21.2 °F 74% 29.69 in 7.0 mi WNW 18.4 mph 23.0 mph N/A   Overcast
6:56 PM 28.4 °F 16.6 °F 21.2 °F 74% 29.69 in 7.0 mi WNW 16.1 mph 25.3 mph N/A   Overcast
7:16 PM 28.4 °F 15.4 °F 19.4 °F 69% 29.70 in 6.0 mi WNW 19.6 mph 23.0 mph N/A   Overcast
7:36 PM 28.4 °F 15.8 °F 19.4 °F 69% 29.71 in 9.0 mi WNW 18.4 mph 24.2 mph N/A   Overcast
7:56 PM 28.4 °F 15.8 °F 19.4 °F 69% 29.71 in 8.0 mi WNW 18.4 mph 23.0 mph N/A   Overcast
8:16 PM 26.6 °F 11.7 °F 17.6 °F 69% 29.72 in 10.0 mi WNW 24.2 mph 29.9 mph N/A   Overcast
8:36 PM 26.6 °F 13.1 °F 17.6 °F 69% 29.72 in 10.0 mi West 19.6 mph 24.2 mph N/A   Overcast
8:56 PM 26.6 °F 12.0 °F 17.6 °F 69% 29.73 in 10.0 mi West 23.0 mph 27.6 mph N/A   Overcast
9:16 PM 26.6 °F 12.7 °F 17.6 °F 69% 29.74 in 10.0 mi WNW 20.7 mph 27.6 mph N/A   Overcast
9:36 PM 26.6 °F 13.1 °F 17.6 °F 69% 29.74 in 10.0 mi WNW 19.6 mph 27.6 mph N/A   Overcast
9:56 PM 26.6 °F 13.4 °F 17.6 °F 69% 29.75 in 10.0 mi West 18.4 mph 27.6 mph N/A   Overcast
10:16 PM 26.6 °F 12.4 °F 15.8 °F 64% 29.76 in 10.0 mi West 21.9 mph 26.5 mph N/A   Overcast
10:36 PM 26.6 °F 12.7 °F 15.8 °F 64% 29.77 in 10.0 mi WNW 20.7 mph 24.2 mph N/A   Overcast
10:56 PM 24.8 °F 11.5 °F 15.8 °F 69% 29.77 in 10.0 mi WNW 17.3 mph 26.5 mph N/A   Overcast
11:16 PM 24.8 °F 9.3 °F 14.0 °F 64% 29.78 in 10.0 mi WNW 24.2 mph - N/A   Overcast
11:36 PM 24.8 °F 9.0 °F 15.8 °F 69% 29.79 in 10.0 mi NW 25.3 mph - N/A   Overcast
11:56 PM 24.8 °F 10.0 °F 14.0 °F 64% 29.80 in 10.0 mi WNW 21.9 mph 29.9 mph N/A   Overcast